createdAt,value
2019-03-04T00:01:48.878Z,70.50
2019-03-04T00:04:17.710Z,70.80
2019-03-04T00:06:46.758Z,70.50
2019-03-04T00:09:15.730Z,70.30
2019-03-04T00:11:44.716Z,70.20
2019-03-04T00:14:13.615Z,71.60
2019-03-04T00:16:42.646Z,71.00
2019-03-04T00:19:11.504Z,71.80
2019-03-04T00:21:40.646Z,71.20
2019-03-04T00:24:09.707Z,71.40
2019-03-04T00:26:38.547Z,71.00
2019-03-04T00:29:07.422Z,71.10
2019-03-04T00:31:36.634Z,70.80
2019-03-04T00:34:05.683Z,71.10
2019-03-04T00:36:34.771Z,70.60
2019-03-04T00:39:04.858Z,70.50
2019-03-04T00:41:33.760Z,70.80
2019-03-04T00:44:02.586Z,70.30
2019-03-04T00:46:31.651Z,70.60
2019-03-04T00:49:00.567Z,69.90
2019-03-04T00:51:29.885Z,70.40
2019-03-04T00:53:58.755Z,70.80
2019-03-04T00:56:27.603Z,70.20
2019-03-04T00:58:56.449Z,69.80
2019-03-04T01:01:25.233Z,70.30
2019-03-04T01:03:54.082Z,69.80
2019-03-04T01:06:22.888Z,69.80
2019-03-04T01:08:51.791Z,69.60
2019-03-04T01:11:20.746Z,69.90
2019-03-04T01:13:49.629Z,69.40
2019-03-04T01:16:18.499Z,69.40
2019-03-04T01:18:47.639Z,68.80
2019-03-04T01:21:16.490Z,68.70
2019-03-04T01:23:45.430Z,68.70
2019-03-04T01:26:14.326Z,68.30
2019-03-04T01:28:43.163Z,68.70
2019-03-04T01:31:13.396Z,68.80
2019-03-04T01:33:42.214Z,68.70
2019-03-04T01:36:11.014Z,68.70
2019-03-04T01:38:39.877Z,68.80
2019-03-04T01:41:08.700Z,69.00
2019-03-04T01:43:37.503Z,69.00
2019-03-04T01:46:06.350Z,69.30
2019-03-04T01:48:35.239Z,69.90
2019-03-04T01:51:04.098Z,70.40
2019-03-04T01:53:32.990Z,70.70
2019-03-04T01:56:02.510Z,71.40
2019-03-04T01:58:31.374Z,72.00
2019-03-04T02:01:00.347Z,72.40
2019-03-04T02:03:29.167Z,72.90
2019-03-04T02:05:58.283Z,73.10
2019-03-04T02:08:27.142Z,72.60
2019-03-04T02:10:56.075Z,71.60
2019-03-04T02:13:24.853Z,71.10
2019-03-04T02:15:53.656Z,71.90
2019-03-04T02:18:22.475Z,74.00
2019-03-04T02:20:51.297Z,75.00
2019-03-04T02:23:20.229Z,69.60
2019-03-04T02:26:32.220Z,68.80
2019-03-04T02:29:01.189Z,68.30
2019-03-04T02:31:30.157Z,67.90
2019-03-04T02:33:59.381Z,66.70
2019-03-04T02:36:28.339Z,66.40
2019-03-04T02:38:57.629Z,68.20
2019-03-04T02:41:26.942Z,69.80
2019-03-04T02:43:55.821Z,69.50
2019-03-04T02:46:24.757Z,72.10
2019-03-04T02:48:54.097Z,72.40
2019-03-04T02:51:23.077Z,73.50
2019-03-04T02:53:52.351Z,72.90
2019-03-04T02:56:21.430Z,69.80
2019-03-04T02:58:50.441Z,70.40
2019-03-04T03:01:19.829Z,68.80
2019-03-04T03:03:49.144Z,66.60
2019-03-04T03:06:18.095Z,68.60
2019-03-04T03:08:47.089Z,67.40
2019-03-04T03:11:16.116Z,69.00
2019-03-04T03:13:45.150Z,68.80
2019-03-04T03:16:14.173Z,67.90
2019-03-04T03:18:43.065Z,67.70
2019-03-04T03:21:11.990Z,67.50
2019-03-04T03:23:40.971Z,67.40
2019-03-04T03:26:10.040Z,68.50
2019-03-04T03:28:39.434Z,68.30
2019-03-04T03:31:08.468Z,68.50
2019-03-04T03:33:37.416Z,71.30
2019-03-04T03:36:06.424Z,72.90
2019-03-04T03:38:35.717Z,74.00
2019-03-04T03:41:04.793Z,75.30
2019-03-04T03:43:33.645Z,76.00
2019-03-04T03:46:02.680Z,77.00
2019-03-04T03:48:31.884Z,76.30
2019-03-04T03:51:00.788Z,77.40
2019-03-04T03:53:29.684Z,77.90
2019-03-04T03:55:58.748Z,78.60
2019-03-04T03:58:27.805Z,78.60
2019-03-04T04:00:57.099Z,79.50
2019-03-04T04:03:26.923Z,80.30
2019-03-04T04:05:55.915Z,80.30
2019-03-04T04:08:24.955Z,80.60
2019-03-04T04:10:53.982Z,80.70
2019-03-04T04:13:22.942Z,78.40
2019-03-04T04:15:51.928Z,78.50
2019-03-04T04:18:20.962Z,79.50
2019-03-04T04:20:49.975Z,80.20
2019-03-04T04:23:18.976Z,79.40
2019-03-04T04:25:48.077Z,78.70
2019-03-04T04:28:17.385Z,77.90
2019-03-04T04:30:46.324Z,77.50
2019-03-04T04:33:15.527Z,77.20
2019-03-04T04:35:44.460Z,77.40
2019-03-04T04:38:13.492Z,77.80
2019-03-04T04:40:42.464Z,78.90
2019-03-04T04:43:11.395Z,80.20
2019-03-04T04:45:40.614Z,82.00
2019-03-04T04:48:09.569Z,82.60
2019-03-04T04:50:38.513Z,83.40
2019-03-04T04:53:07.603Z,84.10
2019-03-04T04:55:36.544Z,84.40
2019-03-04T04:58:05.455Z,84.60
2019-03-04T05:00:34.853Z,86.10
2019-03-04T05:03:03.884Z,86.60
2019-03-04T05:05:32.863Z,87.40
2019-03-04T05:08:02.176Z,89.10
2019-03-04T05:10:31.225Z,89.10
2019-03-04T05:13:00.133Z,86.90
2019-03-04T05:15:29.056Z,84.50
2019-03-04T05:17:58.109Z,84.00
2019-03-04T05:20:27.141Z,85.40
2019-03-04T05:22:56.209Z,86.40
2019-03-04T05:25:25.515Z,87.10
2019-03-04T05:27:54.668Z,88.20
2019-03-04T05:30:24.004Z,89.30
2019-03-04T05:32:52.957Z,90.00
2019-03-04T05:35:22.319Z,90.60
2019-03-04T05:37:51.993Z,91.20
2019-03-04T05:40:21.073Z,91.60
2019-03-04T05:42:50.118Z,91.70
2019-03-04T05:45:19.140Z,91.80
2019-03-04T05:47:48.175Z,92.20
2019-03-04T05:50:17.283Z,92.20
2019-03-04T05:52:46.202Z,92.20
2019-03-04T05:55:15.256Z,92.20
2019-03-04T05:57:44.273Z,91.90
2019-03-04T06:00:15.935Z,91.50
2019-03-04T06:02:45.057Z,91.30
2019-03-04T06:05:14.916Z,90.80
2019-03-04T06:07:47.742Z,90.70
2019-03-04T06:10:16.937Z,91.00
2019-03-04T06:12:46.006Z,90.60
2019-03-04T06:15:16.713Z,88.00
2019-03-04T06:17:45.704Z,87.60
2019-03-04T06:20:17.459Z,85.70
2019-03-04T06:22:46.467Z,85.00
2019-03-04T06:25:20.483Z,84.20
2019-03-04T06:27:49.815Z,83.50
2019-03-04T06:30:24.141Z,83.10
2019-03-04T06:32:53.240Z,82.10
2019-03-04T06:35:22.667Z,81.80
2019-03-04T06:37:53.910Z,81.50
2019-03-04T06:40:22.517Z,81.30
2019-03-04T06:42:56.596Z,81.60
2019-03-04T06:49:28.981Z,80.30
2019-03-04T06:52:01.678Z,80.10
2019-03-04T06:55:19.231Z,79.60
2019-03-04T06:57:59.961Z,80.30
2019-03-04T07:00:49.152Z,81.70
2019-03-04T07:03:38.923Z,82.60
2019-03-04T07:06:08.035Z,82.70
2019-03-04T07:09:04.760Z,81.90
2019-03-04T07:11:34.179Z,79.00
2019-03-04T07:14:03.430Z,78.20
2019-03-04T07:16:33.769Z,77.90
2019-03-04T07:19:06.316Z,75.40
2019-03-04T07:21:35.397Z,74.20
2019-03-04T07:24:04.526Z,71.90
2019-03-04T07:26:33.606Z,69.50
2019-03-04T07:29:02.668Z,70.00
2019-03-04T07:31:31.924Z,67.70
2019-03-04T07:34:00.901Z,67.80
2019-03-04T07:36:29.905Z,65.80
2019-03-04T07:39:01.324Z,66.30
2019-03-04T07:41:33.298Z,65.20
2019-03-04T07:44:02.739Z,63.60
2019-03-04T07:46:31.720Z,64.20
2019-03-04T07:49:00.758Z,59.70
2019-03-04T07:51:29.746Z,59.90
2019-03-04T07:53:58.821Z,61.80
2019-03-04T07:56:27.919Z,63.30
2019-03-04T07:58:56.930Z,62.60
2019-03-04T08:01:25.929Z,59.30
2019-03-04T08:03:55.902Z,60.90
2019-03-04T08:06:24.836Z,58.40
2019-03-04T08:09:29.477Z,55.90
2019-03-04T08:12:38.677Z,57.10
2019-03-04T08:15:09.761Z,55.50
2019-03-04T08:17:38.807Z,52.50
2019-03-04T08:20:10.260Z,52.40
2019-03-04T08:22:39.328Z,50.80
2019-03-04T08:25:11.341Z,50.80
2019-03-04T08:27:40.456Z,45.70
2019-03-04T08:30:13.340Z,44.00
2019-03-04T08:32:42.441Z,44.90
2019-03-04T08:35:11.472Z,42.30
2019-03-04T08:37:40.581Z,42.40
2019-03-04T08:40:10.385Z,40.60
2019-03-04T08:42:39.398Z,41.10
2019-03-04T08:45:09.654Z,37.70
2019-03-04T08:47:38.864Z,39.30
2019-03-04T08:50:08.729Z,41.80
2019-03-04T08:52:37.791Z,42.20
2019-03-04T08:55:07.650Z,40.30
2019-03-04T08:57:36.592Z,42.20
2019-03-04T09:00:08.844Z,41.50
2019-03-04T09:02:37.845Z,42.00
2019-03-04T09:05:07.279Z,41.80
2019-03-04T09:07:36.587Z,40.60
2019-03-04T09:10:08.114Z,39.40
2019-03-04T09:12:37.149Z,39.30
2019-03-04T09:15:06.633Z,41.70
2019-03-04T09:17:35.668Z,43.80
2019-03-04T09:20:05.451Z,44.50
2019-03-04T09:22:34.473Z,46.60
2019-03-04T09:25:03.954Z,47.90
2019-03-04T09:27:33.083Z,48.80
2019-03-04T09:30:02.135Z,45.10
2019-03-04T09:32:31.072Z,44.20
2019-03-04T09:35:00.133Z,41.10
2019-03-04T09:37:29.087Z,41.10
2019-03-04T09:39:58.107Z,41.50
2019-03-04T09:42:28.193Z,41.20
2019-03-04T09:44:57.126Z,40.90
2019-03-04T09:47:26.164Z,41.50
2019-03-04T09:49:55.453Z,42.20
2019-03-04T09:52:24.525Z,42.60
2019-03-04T09:54:53.693Z,44.00
2019-03-04T09:57:22.564Z,44.50
2019-03-04T09:59:51.528Z,44.00
2019-03-04T10:02:26.104Z,44.90
2019-03-04T10:05:29.281Z,45.60
2019-03-04T10:08:55.215Z,46.90
2019-03-04T10:12:08.789Z,47.10
2019-03-04T10:15:09.708Z,47.00
2019-03-04T10:18:07.553Z,46.60
2019-03-04T10:21:05.493Z,46.70
2019-03-04T10:24:03.414Z,48.00
2019-03-04T10:27:10.896Z,46.40
2019-03-04T10:30:35.212Z,46.60
2019-03-04T10:33:42.779Z,47.10
2019-03-04T10:36:29.471Z,47.30
2019-03-04T10:39:51.114Z,47.50
2019-03-04T10:43:10.571Z,48.30
2019-03-04T10:46:12.467Z,48.30
2019-03-04T10:48:41.793Z,50.00
2019-03-04T10:51:10.790Z,50.60
2019-03-04T10:53:41.831Z,51.20
2019-03-04T10:56:11.022Z,54.30
2019-03-04T10:58:40.222Z,55.00
2019-03-04T11:01:09.455Z,56.20
2019-03-04T11:03:39.018Z,57.30
2019-03-04T11:06:08.757Z,58.10
2019-03-04T11:08:38.980Z,59.00
2019-03-04T11:11:08.360Z,60.80
2019-03-04T11:13:37.428Z,62.70
2019-03-04T11:16:06.377Z,63.20
2019-03-04T11:18:36.024Z,64.40
2019-03-04T11:21:05.393Z,64.30
2019-03-04T11:23:34.402Z,64.50
2019-03-04T11:26:03.908Z,63.20
2019-03-04T11:28:33.014Z,61.40
2019-03-04T11:31:03.401Z,61.70
2019-03-04T11:33:32.437Z,60.20
2019-03-04T11:36:01.528Z,59.40
2019-03-04T11:38:39.719Z,58.70
2019-03-04T11:41:10.381Z,58.20
2019-03-04T11:43:39.647Z,58.20
2019-03-04T11:46:09.323Z,57.10
2019-03-04T11:48:38.320Z,57.30
2019-03-04T11:51:07.348Z,55.30
2019-03-04T11:53:36.308Z,53.80
2019-03-04T11:56:06.034Z,53.80
2019-03-04T11:58:34.961Z,53.40
2019-03-04T12:01:13.508Z,53.20
2019-03-04T12:03:42.516Z,52.30
2019-03-04T12:06:11.542Z,51.40
2019-03-04T12:08:40.545Z,50.40
2019-03-04T12:11:09.596Z,49.50
2019-03-04T12:13:38.906Z,48.90
2019-03-04T12:16:07.924Z,49.00
2019-03-04T12:18:37.260Z,48.70
2019-03-04T12:21:06.276Z,49.70
2019-03-04T12:23:35.339Z,48.90
2019-03-04T12:26:04.522Z,48.50
2019-03-04T12:28:33.393Z,48.90
2019-03-04T12:31:02.433Z,47.90
2019-03-04T12:33:31.304Z,47.50
2019-03-04T12:36:00.327Z,47.50
2019-03-04T12:38:29.284Z,47.70
2019-03-04T12:40:58.277Z,47.20
2019-03-04T12:43:27.357Z,46.50
2019-03-04T12:45:56.330Z,46.30
2019-03-04T12:48:25.413Z,46.70
2019-03-04T12:50:54.424Z,46.30
2019-03-04T12:53:23.356Z,46.40
2019-03-04T12:55:52.541Z,46.60
2019-03-04T12:58:21.491Z,47.00
2019-03-04T13:00:50.505Z,47.30
2019-03-04T13:03:23.829Z,46.90
2019-03-04T13:05:52.905Z,47.70
2019-03-04T13:08:21.857Z,47.80
2019-03-04T13:10:50.814Z,47.40
2019-03-04T13:13:20.207Z,47.90
2019-03-04T13:15:50.652Z,49.60
2019-03-04T13:18:19.703Z,49.50
2019-03-04T13:21:07.851Z,50.10
2019-03-04T13:23:36.911Z,50.30
2019-03-04T13:26:05.853Z,51.50
2019-03-04T13:28:35.168Z,52.00
2019-03-04T13:31:05.788Z,52.70
2019-03-04T13:33:35.268Z,52.80
2019-03-04T13:36:06.465Z,54.10
2019-03-04T13:38:35.422Z,54.10
2019-03-04T13:41:04.524Z,54.50
2019-03-04T13:43:33.567Z,55.40
2019-03-04T13:46:02.624Z,55.50
2019-03-04T13:48:31.692Z,55.50
2019-03-04T13:51:00.804Z,55.80
2019-03-04T13:53:29.788Z,56.40
2019-03-04T13:55:59.106Z,56.30
2019-03-04T13:58:28.214Z,56.00
2019-03-04T14:00:57.315Z,56.30
2019-03-04T14:03:26.173Z,55.90
2019-03-04T14:05:55.232Z,56.00
2019-03-04T14:08:24.368Z,56.20
2019-03-04T14:10:53.500Z,55.10
2019-03-04T14:13:22.443Z,55.10
2019-03-04T14:15:51.523Z,54.70
2019-03-04T14:18:20.553Z,54.60
2019-03-04T14:20:49.597Z,54.40
2019-03-04T14:23:18.723Z,54.40
2019-03-04T14:25:49.778Z,54.20
2019-03-04T14:28:18.532Z,54.20
2019-03-04T14:30:47.804Z,53.60
2019-03-04T14:33:16.880Z,53.60
2019-03-04T14:35:46.392Z,53.40
2019-03-04T14:38:15.712Z,53.60
2019-03-04T14:40:44.856Z,53.90
2019-03-04T14:43:13.950Z,54.20
2019-03-04T14:45:43.024Z,54.60
2019-03-04T14:48:12.015Z,54.20
2019-03-04T14:50:41.146Z,54.40
2019-03-04T14:53:10.151Z,54.40
2019-03-04T14:55:39.184Z,54.40
2019-03-04T14:58:08.134Z,54.70
2019-03-04T15:00:39.024Z,55.00
2019-03-04T15:03:08.285Z,55.60
2019-03-04T15:05:37.282Z,55.20
2019-03-04T15:08:06.397Z,55.70
2019-03-04T15:10:35.429Z,56.40
2019-03-04T15:13:04.460Z,56.70
2019-03-04T15:15:33.504Z,57.10
2019-03-04T15:18:02.512Z,57.00
2019-03-04T15:20:33.509Z,57.20
2019-03-04T15:23:02.765Z,57.80
2019-03-04T15:25:31.861Z,57.10
2019-03-04T15:28:12.592Z,57.20
2019-03-04T15:30:42.759Z,57.60
2019-03-04T15:33:17.979Z,57.70
2019-03-04T15:35:42.501Z,58.00
2019-03-04T15:38:11.565Z,57.90
2019-03-04T15:40:40.562Z,57.90
2019-03-04T15:43:09.853Z,57.80
2019-03-04T15:45:42.833Z,57.10
2019-03-04T15:48:12.230Z,54.70
2019-03-04T15:50:41.328Z,52.40
2019-03-04T15:53:10.341Z,50.90
2019-03-04T15:55:39.439Z,49.50
2019-03-04T15:58:08.456Z,49.30
2019-03-04T16:00:37.756Z,49.30
2019-03-04T16:03:07.242Z,48.70
2019-03-04T16:05:36.216Z,49.20
2019-03-04T16:08:07.851Z,49.70
2019-03-04T16:10:37.756Z,50.60
2019-03-04T16:13:07.127Z,52.20
2019-03-04T16:15:37.898Z,53.30
2019-03-04T16:18:07.227Z,54.20
2019-03-04T16:20:36.472Z,53.90
2019-03-04T16:23:05.515Z,53.40
2019-03-04T16:25:34.612Z,53.20
2019-03-04T16:28:06.756Z,53.50
2019-03-04T16:30:35.717Z,52.90
2019-03-04T16:33:04.762Z,53.90
2019-03-04T16:35:33.776Z,54.10
2019-03-04T16:38:02.809Z,53.80
2019-03-04T16:40:31.795Z,54.30
2019-03-04T16:43:00.799Z,55.10
2019-03-04T16:45:29.870Z,56.20
2019-03-04T16:47:58.867Z,56.80
2019-03-04T16:50:28.185Z,57.30
2019-03-04T16:52:57.255Z,57.90
2019-03-04T16:55:26.268Z,58.40
2019-03-04T16:57:55.328Z,58.60
2019-03-04T17:00:24.545Z,58.70
2019-03-04T17:02:53.756Z,58.90
2019-03-04T17:05:22.728Z,58.80
2019-03-04T17:07:51.941Z,59.30
2019-03-04T17:10:21.131Z,58.70
2019-03-04T17:12:50.159Z,58.50
2019-03-04T17:15:40.285Z,58.40
2019-03-04T17:18:09.272Z,59.40
2019-03-04T17:20:40.444Z,58.20
2019-03-04T17:23:09.595Z,58.30
2019-03-04T17:25:38.864Z,57.40
2019-03-04T17:28:08.619Z,56.20
2019-03-04T17:30:37.949Z,55.20
2019-03-04T17:33:09.067Z,54.80
2019-03-04T17:35:38.153Z,54.10
2019-03-04T17:38:07.170Z,54.10
2019-03-04T17:40:36.502Z,54.30
2019-03-04T17:43:05.545Z,54.20
2019-03-04T17:45:37.636Z,54.90
2019-03-04T17:48:06.692Z,54.30
2019-03-04T17:50:39.532Z,54.00
2019-03-04T17:53:08.969Z,53.00
2019-03-04T17:55:38.873Z,53.10
2019-03-04T17:58:07.916Z,54.30
2019-03-04T18:00:38.689Z,58.90
2019-03-04T18:03:07.805Z,65.20
2019-03-04T18:05:37.920Z,70.30
2019-03-04T18:08:06.940Z,74.40
2019-03-04T18:10:36.008Z,78.00
2019-03-04T18:13:05.289Z,80.80
2019-03-04T18:15:36.478Z,80.60
2019-03-04T18:18:05.516Z,82.40
2019-03-04T18:20:34.957Z,82.00
2019-03-04T18:23:04.164Z,83.50
2019-03-04T18:28:31.294Z,84.30
2019-03-04T18:31:15.165Z,85.10
2019-03-04T18:34:14.352Z,85.90
2019-03-04T18:37:11.600Z,85.80
2019-03-04T18:40:28.471Z,85.80
2019-03-04T18:43:18.957Z,85.80
2019-03-04T18:46:37.844Z,88.20
2019-03-04T18:49:07.146Z,88.80
2019-03-04T18:51:36.860Z,90.20
2019-03-04T18:54:19.901Z,90.90
2019-03-04T18:56:52.047Z,91.50
2019-03-04T18:59:21.189Z,92.00
2019-03-04T19:01:50.882Z,92.80
2019-03-04T19:04:25.630Z,92.00
2019-03-04T19:06:55.593Z,92.70
2019-03-04T19:09:31.175Z,92.90
2019-03-04T19:12:03.592Z,93.00
2019-03-04T19:14:37.016Z,93.00
2019-03-04T19:17:07.846Z,92.90
2019-03-04T19:19:39.266Z,93.20
2019-03-04T19:22:08.160Z,93.30
2019-03-04T19:24:37.125Z,93.70
2019-03-04T19:27:06.063Z,94.00
2019-03-04T19:29:37.450Z,94.70
2019-03-04T19:32:06.559Z,94.60
2019-03-04T19:34:35.849Z,95.20
2019-03-04T19:37:04.841Z,95.20
2019-03-04T19:39:33.815Z,95.20
2019-03-04T19:42:04.253Z,95.70
2019-03-04T19:44:33.763Z,95.70
2019-03-04T19:47:02.690Z,95.40
2019-03-04T19:49:31.734Z,95.60
2019-03-04T19:52:00.797Z,95.50
2019-03-04T19:54:30.168Z,95.50
2019-03-04T19:56:59.111Z,95.80
2019-03-04T19:59:28.125Z,95.80
2019-03-04T20:01:57.654Z,95.80
2019-03-04T20:04:26.680Z,96.00
2019-03-04T20:06:55.684Z,95.80
2019-03-04T20:09:25.168Z,95.60
2019-03-04T20:11:54.198Z,95.00
2019-03-04T20:14:25.242Z,95.20
2019-03-04T20:16:53.999Z,95.30
2019-03-04T20:19:23.016Z,95.00
2019-03-04T20:21:52.318Z,95.10
2019-03-04T20:24:21.428Z,95.00
2019-03-04T20:26:50.544Z,94.50
2019-03-04T20:29:19.576Z,94.80
2019-03-04T20:31:48.628Z,94.70
2019-03-04T20:34:17.652Z,94.00
2019-03-04T20:36:46.713Z,93.50
2019-03-04T20:39:16.139Z,93.40
2019-03-04T20:41:45.100Z,92.60
2019-03-04T20:44:19.884Z,92.20
2019-03-04T20:46:49.343Z,91.90
2019-03-04T20:49:18.369Z,91.40
2019-03-04T20:51:49.408Z,91.20
2019-03-04T20:54:18.822Z,90.80
2019-03-04T20:56:47.827Z,89.30
2019-03-04T20:59:16.816Z,89.70
2019-03-04T21:01:46.105Z,88.30
2019-03-04T21:04:15.177Z,88.20
2019-03-04T21:06:44.438Z,88.50
2019-03-04T21:09:16.186Z,89.30
2019-03-04T21:11:45.228Z,89.20
2019-03-04T21:14:14.285Z,89.80
2019-03-04T21:16:43.307Z,89.50
2019-03-04T21:19:12.348Z,90.00
2019-03-04T21:21:41.425Z,90.30
2019-03-04T21:24:10.492Z,90.50
2019-03-04T21:26:45.647Z,91.00
2019-03-04T21:29:43.484Z,91.30
2019-03-04T21:32:20.732Z,91.60
2019-03-04T21:35:41.493Z,91.90
2019-03-04T21:38:10.597Z,92.20
2019-03-04T21:40:49.494Z,92.30
2019-03-04T21:43:32.981Z,92.30
2019-03-04T21:46:46.419Z,92.70
2019-03-04T21:49:18.061Z,92.70
2019-03-04T21:52:49.381Z,92.50
2019-03-04T21:55:25.109Z,92.30
2019-03-04T21:57:56.584Z,92.60
2019-03-04T22:00:36.049Z,92.70
2019-03-04T22:03:14.615Z,92.40
2019-03-04T22:05:50.328Z,92.60
2019-03-04T22:08:14.415Z,92.40
2019-03-04T22:10:43.422Z,92.40
2019-03-04T22:13:12.488Z,92.40
2019-03-04T22:15:41.512Z,92.30
2019-03-04T22:18:12.912Z,92.80
2019-03-04T22:20:41.432Z,92.90
2019-03-04T22:23:10.541Z,92.80
2019-03-04T22:25:39.525Z,93.10
2019-03-04T22:28:08.560Z,93.40
2019-03-04T22:30:37.739Z,93.90
2019-03-04T22:33:06.661Z,94.50
2019-03-04T22:35:35.661Z,95.10
2019-03-04T22:38:04.688Z,94.60
2019-03-04T22:40:34.039Z,94.90
2019-03-04T22:43:03.104Z,95.00
2019-03-04T22:45:32.091Z,95.20
2019-03-04T22:48:01.101Z,95.50
2019-03-04T22:50:30.209Z,95.40
2019-03-04T22:52:59.521Z,95.30
2019-03-04T22:55:34.190Z,95.80
2019-03-04T22:58:03.231Z,95.80
2019-03-04T23:01:34.495Z,95.60
2019-03-04T23:04:26.798Z,95.80
2019-03-04T23:07:17.295Z,95.80
2019-03-04T23:10:18.880Z,95.70
2019-03-04T23:13:32.319Z,95.80
2019-03-04T23:16:02.937Z,95.90
2019-03-04T23:18:32.080Z,95.80
2019-03-04T23:21:00.937Z,95.80
2019-03-04T23:23:29.886Z,95.60
2019-03-04T23:25:59.113Z,95.40
2019-03-04T23:28:28.044Z,95.50
2019-03-04T23:30:59.805Z,95.70
2019-03-04T23:33:27.701Z,95.60
2019-03-04T23:35:56.708Z,95.70
2019-03-04T23:38:26.232Z,96.00
2019-03-04T23:40:55.208Z,96.40
2019-03-04T23:43:24.188Z,96.50
2019-03-04T23:45:53.209Z,96.70
2019-03-04T23:48:22.184Z,96.90
2019-03-04T23:50:51.312Z,96.90
2019-03-04T23:53:20.185Z,97.10
2019-03-04T23:55:49.169Z,97.20
2019-03-04T23:58:18.116Z,97.10
